Glorious Ace — ZGAL — position and weather

sailwx.info

Track history (hours):
 
Tides and Currents Weather Stations Pressure Air Temp Water Temp Dewpoint Dewpoint Depression Visibility Wind Speed Wind Dir Waves Ship Positions

Glorious Ace

Last reported at 2017-Sep-21 15:58 UTC. Time now 2017-Sep-21 16:21 UTC.
Position N 31°19' E 121°41'.

Length 200 m; draft 9 m.

Type: Ship. MMSI: 319409000.

Date/timePositionNaut miles runAvg speedWind from/ knotsBaromVisibWave heightAir tempDewpointWater temp
2017-Sep-21 15:58N 31°19' E 121°41'0 0.0
2017-Sep-21 15:28N 31°19' E 121°41'0 0.0
2017-Sep-21 14:58N 31°19' E 121°41'0 0.0
2017-Sep-21 14:22N 31°19' E 121°41'0 0.0
2017-Sep-21 13:55N 31°19' E 121°41'0 0.0
2017-Sep-21 13:28N 31°19' E 121°41'0 0.0
2017-Sep-21 12:58N 31°19' E 121°41'0 0.0
2017-Sep-21 12:28N 31°19' E 121°41'0 0.0
2017-Sep-21 11:58N 31°19' E 121°41'0 0.0
2017-Sep-21 11:28N 31°19' E 121°41'0 0.0
2017-Sep-21 10:58N 31°19' E 121°41'0 0.0
2017-Sep-21 10:28N 31°19' E 121°41'0 0.0
2017-Sep-21 09:58N 31°19' E 121°41'0 0.0
2017-Sep-21 09:28N 31°19' E 121°41'0 0.0
2017-Sep-21 08:58N 31°19' E 121°41'0 0.0
2017-Sep-21 08:28N 31°19' E 121°41'0 0.0
2017-Sep-21 07:58N 31°19' E 121°41'0 0.0
2017-Sep-21 07:28N 31°19' E 121°41'0 0.0
2017-Sep-21 06:58N 31°19' E 121°41'0 0.0
2017-Sep-21 06:28N 31°19' E 121°41'0 0.0
2017-Sep-21 05:58N 31°19' E 121°41'0 0.2
2017-Sep-21 05:30N 31°20' E 121°41'2 4.1
2017-Sep-21 05:00N 31°19' E 121°43'612.5
2017-Sep-21 04:30N 31°17' E 121°50'612.4
2017-Sep-21 04:00N 31°15' E 121°57'612.5
2017-Sep-21 03:30N 31°14' E 122°04'713.1
2017-Sep-21 03:00N 31°11' E 122°11'714.3
2017-Sep-21 02:30N 31°07' E 122°18'611.1
2017-Sep-21 02:00N 31°07' E 122°24'4 7.7
2017-Sep-21 01:28N 31°07' E 122°29'12 0.6
2017-Sep-20 04:47N 31°08' E 122°43'0 0.1
2017-Sep-20 04:17N 31°09' E 122°43'0 0.0
2017-Sep-20 01:38N 31°09' E 122°42'0 0.0
2017-Sep-20 01:29N 31°09' E 122°42'0 0.0
2017-Sep-19 13:32N 31°09' E 122°42'0 0.0
2017-Sep-19 07:38N 31°09' E 122°43'0 0.0
2017-Sep-19 07:20N 31°09' E 122°43'0 0.2
2017-Sep-19 06:59N 31°09' E 122°42'0 0.0
2017-Sep-19 02:35N 31°09' E 122°42'0 0.0
2017-Sep-19 02:29N 31°09' E 122°42'0 0.0
2017-Sep-19 01:56N 31°09' E 122°42'0 0.0
2017-Sep-19 01:26N 31°09' E 122°42'0 0.0
2017-Sep-18 23:47N 31°09' E 122°42'0 0.2
2017-Sep-18 23:29N 31°09' E 122°42'0 0.3
2017-Sep-18 22:56N 31°08' E 122°43'0 0.0
2017-Sep-18 22:05N 31°08' E 122°43'0 0.0
2017-Sep-18 21:47N 31°08' E 122°43'0 0.0
2017-Sep-18 20:23N 31°08' E 122°42'0 0.1
2017-Sep-18 19:59N 31°09' E 122°42'0 0.0
2017-Sep-18 19:23N 31°09' E 122°42'0 0.0
2017-Sep-18 18:53N 31°09' E 122°42'0 0.0
2017-Sep-18 17:26N 31°09' E 122°42'0 0.1
2017-Sep-18 16:50N 31°09' E 122°42'0 0.0
2017-Sep-18 16:29N 31°09' E 122°42'0 0.0
2017-Sep-18 15:59N 31°09' E 122°42'0 0.0
2017-Sep-18 15:23N 31°09' E 122°42'0 0.0
2017-Sep-18 14:50N 31°09' E 122°42'0 0.0
2017-Sep-18 14:26N 31°09' E 122°42'0 0.0
2017-Sep-18 13:56N 31°09' E 122°42'0 0.0
2017-Sep-18 13:29N 31°09' E 122°42'0 0.0
2017-Sep-18 12:53N 31°09' E 122°42'0 0.0
2017-Sep-18 12:29N 31°09' E 122°42'0 0.0
2017-Sep-18 00:17N 31°09' E 122°42'0 0.0
2017-Sep-17 20:50N 31°08' E 122°43'0 0.1
2017-Sep-17 19:36N 31°09' E 122°42'1 2.4
2017-Sep-17 19:22N 31°08' E 122°43'3011.0
2017-Sep-17 16:37N 30°43' E 123°02'416.3
2017-Sep-17 16:24N 30°39' E 123°03'716.4
2017-Sep-17 15:59N 30°33' E 123°05'816.4
2017-Sep-17 15:30N 30°25' E 123°06'36214.2
2017-Sep-16 14:05N 25°02' E 120°02'115.0
2017-Sep-16 14:00N 25°01' E 120°01'1014.9
2017-Sep-16 13:19N 24°54' E 119°53'515.1
2017-Sep-16 13:00N 24°51' E 119°49'713.9
2017-Sep-16 12:30N 24°47' E 119°43'714.5
2017-Sep-16 12:00N 24°41' E 119°38'714.3
2017-Sep-16 11:30N 24°35' E 119°33'714.2
2017-Sep-16 11:00N 24°31' E 119°27'714.9
2017-Sep-16 10:30N 24°27' E 119°20'815.4
2017-Sep-16 10:00N 24°21' E 119°15'816.2
2017-Sep-16 09:30N 24°15' E 119°09'816.7
2017-Sep-16 09:00N 24°09' E 119°03'816.8
2017-Sep-16 08:31N 24°02' E 118°57'916.9
2017-Sep-16 08:00N 23°57' E 118°50'815.9
2017-Sep-16 07:30N 23°54' E 118°41'816.6
2017-Sep-16 07:00N 23°49' E 118°35'816.5
2017-Sep-16 06:31N 23°43' E 118°28'816.3
2017-Sep-16 06:00N 23°39' E 118°21'816.0
2017-Sep-16 05:30N 23°36' E 118°13'25614.2
2017-Sep-15 11:28N 22°23' E 113°47'714.6
2017-Sep-15 11:00N 22°29' E 113°45'714.0
2017-Sep-15 10:30N 22°36' E 113°42'612.4
2017-Sep-15 10:00N 22°42' E 113°41'611.1
2017-Sep-15 09:30N 22°47' E 113°38'611.8
2017-Sep-15 09:00N 22°52' E 113°34'5 9.7
2017-Sep-15 08:30N 22°56' E 113°33'4 8.8
2017-Sep-15 08:00N 23°01' E 113°32'0 0.3
2017-Sep-15 07:30N 23°01' E 113°32'0 0.0
2017-Sep-15 06:57N 23°01' E 113°32'0 0.0
2017-Sep-15 06:30N 23°01' E 113°32'0 0.0
2017-Sep-15 06:00N 23°01' E 113°32'0 0.0
2017-Sep-15 05:27N 23°01' E 113°32'0 0.0
2017-Sep-15 05:00N 23°01' E 113°32'0 0.0
2017-Sep-15 04:30N 23°01' E 113°32'0 0.1
2017-Sep-15 04:00N 23°01' E 113°32'0 0.0
2017-Sep-15 03:30N 23°01' E 113°32'0 0.0
2017-Sep-15 03:00N 23°01' E 113°32'0 0.0
2017-Sep-15 02:24N 23°01' E 113°32'0 0.0
2017-Sep-15 02:00N 23°01' E 113°32'0 0.0
2017-Sep-15 01:30N 23°01' E 113°32'0 0.0
2017-Sep-15 01:00N 23°01' E 113°32'0 0.0
2017-Sep-15 00:30N 23°01' E 113°32'0 0.0
2017-Sep-15 00:00N 23°01' E 113°32'0 0.0
2017-Sep-14 23:30N 23°01' E 113°32'0 0.6
2017-Sep-14 23:00N 23°00' E 113°32'4 7.8
2017-Sep-14 22:30N 22°57' E 113°33'5 9.1
2017-Sep-14 22:00N 22°52' E 113°34'611.1
2017-Sep-14 21:30N 22°48' E 113°37'510.9
2017-Sep-14 21:00N 22°43' E 113°40'612.4
2017-Sep-14 20:30N 22°37' E 113°42'713.9
2017-Sep-14 19:59N 22°30' E 113°45'  
Track history (hours):
 
Tides and Currents Weather Stations Pressure Air Temp Water Temp Dewpoint Dewpoint Depression Visibility Wind Speed Wind Dir Waves Ship Positions

Glorious Ace

Last reported at 2017-Sep-21 15:58 UTC. Time now 2017-Sep-21 16:21 UTC.
Position N 31°19' E 121°41'.

Length 200 m; draft 9 m.

Type: Ship. MMSI: 319409000.

Date/timePositionNaut miles runAvg speedWind from/ knotsBaromVisibWave heightAir tempDewpointWater temp
2017-Sep-21 15:58N 31°19' E 121°41'0 0.0
2017-Sep-21 15:28N 31°19' E 121°41'0 0.0
2017-Sep-21 14:58N 31°19' E 121°41'0 0.0
2017-Sep-21 14:22N 31°19' E 121°41'0 0.0
2017-Sep-21 13:55N 31°19' E 121°41'0 0.0
2017-Sep-21 13:28N 31°19' E 121°41'0 0.0
2017-Sep-21 12:58N 31°19' E 121°41'0 0.0
2017-Sep-21 12:28N 31°19' E 121°41'0 0.0
2017-Sep-21 11:58N 31°19' E 121°41'0 0.0
2017-Sep-21 11:28N 31°19' E 121°41'0 0.0
2017-Sep-21 10:58N 31°19' E 121°41'0 0.0
2017-Sep-21 10:28N 31°19' E 121°41'0 0.0
2017-Sep-21 09:58N 31°19' E 121°41'0 0.0
2017-Sep-21 09:28N 31°19' E 121°41'0 0.0
2017-Sep-21 08:58N 31°19' E 121°41'0 0.0
2017-Sep-21 08:28N 31°19' E 121°41'0 0.0
2017-Sep-21 07:58N 31°19' E 121°41'0 0.0
2017-Sep-21 07:28N 31°19' E 121°41'0 0.0
2017-Sep-21 06:58N 31°19' E 121°41'0 0.0
2017-Sep-21 06:28N 31°19' E 121°41'0 0.0
2017-Sep-21 05:58N 31°19' E 121°41'0 0.2
2017-Sep-21 05:30N 31°20' E 121°41'2 4.1
2017-Sep-21 05:00N 31°19' E 121°43'612.5
2017-Sep-21 04:30N 31°17' E 121°50'612.4
2017-Sep-21 04:00N 31°15' E 121°57'612.5
2017-Sep-21 03:30N 31°14' E 122°04'713.1
2017-Sep-21 03:00N 31°11' E 122°11'714.3
2017-Sep-21 02:30N 31°07' E 122°18'611.1
2017-Sep-21 02:00N 31°07' E 122°24'4 7.7
2017-Sep-21 01:28N 31°07' E 122°29'12 0.6
2017-Sep-20 04:47N 31°08' E 122°43'0 0.1
2017-Sep-20 04:17N 31°09' E 122°43'0 0.0
2017-Sep-20 01:38N 31°09' E 122°42'0 0.0
2017-Sep-20 01:29N 31°09' E 122°42'0 0.0
2017-Sep-19 13:32N 31°09' E 122°42'0 0.0
2017-Sep-19 07:38N 31°09' E 122°43'0 0.0
2017-Sep-19 07:20N 31°09' E 122°43'0 0.2
2017-Sep-19 06:59N 31°09' E 122°42'0 0.0
2017-Sep-19 02:35N 31°09' E 122°42'0 0.0
2017-Sep-19 02:29N 31°09' E 122°42'0 0.0
2017-Sep-19 01:56N 31°09' E 122°42'0 0.0
2017-Sep-19 01:26N 31°09' E 122°42'0 0.0
2017-Sep-18 23:47N 31°09' E 122°42'0 0.2
2017-Sep-18 23:29N 31°09' E 122°42'0 0.3
2017-Sep-18 22:56N 31°08' E 122°43'0 0.0
2017-Sep-18 22:05N 31°08' E 122°43'0 0.0
2017-Sep-18 21:47N 31°08' E 122°43'0 0.0
2017-Sep-18 20:23N 31°08' E 122°42'0 0.1
2017-Sep-18 19:59N 31°09' E 122°42'0 0.0
2017-Sep-18 19:23N 31°09' E 122°42'0 0.0
2017-Sep-18 18:53N 31°09' E 122°42'0 0.0
2017-Sep-18 17:26N 31°09' E 122°42'0 0.1
2017-Sep-18 16:50N 31°09' E 122°42'0 0.0
2017-Sep-18 16:29N 31°09' E 122°42'0 0.0
2017-Sep-18 15:59N 31°09' E 122°42'0 0.0
2017-Sep-18 15:23N 31°09' E 122°42'0 0.0
2017-Sep-18 14:50N 31°09' E 122°42'0 0.0
2017-Sep-18 14:26N 31°09' E 122°42'0 0.0
2017-Sep-18 13:56N 31°09' E 122°42'0 0.0
2017-Sep-18 13:29N 31°09' E 122°42'0 0.0
2017-Sep-18 12:53N 31°09' E 122°42'0 0.0
2017-Sep-18 12:29N 31°09' E 122°42'0 0.0
2017-Sep-18 00:17N 31°09' E 122°42'0 0.0
2017-Sep-17 20:50N 31°08' E 122°43'0 0.1
2017-Sep-17 19:36N 31°09' E 122°42'1 2.4
2017-Sep-17 19:22N 31°08' E 122°43'3011.0
2017-Sep-17 16:37N 30°43' E 123°02'416.3
2017-Sep-17 16:24N 30°39' E 123°03'716.4
2017-Sep-17 15:59N 30°33' E 123°05'816.4
2017-Sep-17 15:30N 30°25' E 123°06'36214.2
2017-Sep-16 14:05N 25°02' E 120°02'115.0
2017-Sep-16 14:00N 25°01' E 120°01'1014.9
2017-Sep-16 13:19N 24°54' E 119°53'515.1
2017-Sep-16 13:00N 24°51' E 119°49'713.9
2017-Sep-16 12:30N 24°47' E 119°43'714.5
2017-Sep-16 12:00N 24°41' E 119°38'714.3
2017-Sep-16 11:30N 24°35' E 119°33'714.2
2017-Sep-16 11:00N 24°31' E 119°27'714.9
2017-Sep-16 10:30N 24°27' E 119°20'815.4
2017-Sep-16 10:00N 24°21' E 119°15'816.2
2017-Sep-16 09:30N 24°15' E 119°09'816.7
2017-Sep-16 09:00N 24°09' E 119°03'816.8
2017-Sep-16 08:31N 24°02' E 118°57'916.9
2017-Sep-16 08:00N 23°57' E 118°50'815.9
2017-Sep-16 07:30N 23°54' E 118°41'816.6
2017-Sep-16 07:00N 23°49' E 118°35'816.5
2017-Sep-16 06:31N 23°43' E 118°28'816.3
2017-Sep-16 06:00N 23°39' E 118°21'816.0
2017-Sep-16 05:30N 23°36' E 118°13'25614.2
2017-Sep-15 11:28N 22°23' E 113°47'714.6
2017-Sep-15 11:00N 22°29' E 113°45'714.0
2017-Sep-15 10:30N 22°36' E 113°42'612.4
2017-Sep-15 10:00N 22°42' E 113°41'611.1
2017-Sep-15 09:30N 22°47' E 113°38'611.8
2017-Sep-15 09:00N 22°52' E 113°34'5 9.7
2017-Sep-15 08:30N 22°56' E 113°33'4 8.8
2017-Sep-15 08:00N 23°01' E 113°32'0 0.3
2017-Sep-15 07:30N 23°01' E 113°32'0 0.0
2017-Sep-15 06:57N 23°01' E 113°32'0 0.0
2017-Sep-15 06:30N 23°01' E 113°32'0 0.0
2017-Sep-15 06:00N 23°01' E 113°32'0 0.0
2017-Sep-15 05:27N 23°01' E 113°32'0 0.0
2017-Sep-15 05:00N 23°01' E 113°32'0 0.0
2017-Sep-15 04:30N 23°01' E 113°32'0 0.1
2017-Sep-15 04:00N 23°01' E 113°32'0 0.0
2017-Sep-15 03:30N 23°01' E 113°32'0 0.0
2017-Sep-15 03:00N 23°01' E 113°32'0 0.0
2017-Sep-15 02:24N 23°01' E 113°32'0 0.0
2017-Sep-15 02:00N 23°01' E 113°32'0 0.0
2017-Sep-15 01:30N 23°01' E 113°32'0 0.0
2017-Sep-15 01:00N 23°01' E 113°32'0 0.0
2017-Sep-15 00:30N 23°01' E 113°32'0 0.0
2017-Sep-15 00:00N 23°01' E 113°32'0 0.0
2017-Sep-14 23:30N 23°01' E 113°32'0 0.6
2017-Sep-14 23:00N 23°00' E 113°32'4 7.8
2017-Sep-14 22:30N 22°57' E 113°33'5 9.1
2017-Sep-14 22:00N 22°52' E 113°34'611.1
2017-Sep-14 21:30N 22°48' E 113°37'510.9
2017-Sep-14 21:00N 22°43' E 113°40'612.4
2017-Sep-14 20:30N 22°37' E 113°42'713.9
2017-Sep-14 19:59N 22°30' E 113°45'  

Dump ship's entire track history